sensor_id;sensor_type;location;lat;lon;timestamp;temperature;humidity
8563;DHT22;16392;52.508;13.468;2022-11-20T00:00:41;0.80;99.90
8563;DHT22;16392;52.508;13.468;2022-11-20T00:03:11;0.80;99.90
8563;DHT22;16392;52.508;13.468;2022-11-20T00:05:39;0.80;99.90
8563;DHT22;16392;52.508;13.468;2022-11-20T00:08:17;0.80;99.90
8563;DHT22;16392;52.508;13.468;2022-11-20T00:10:49;0.80;99.90
8563;DHT22;16392;52.508;13.468;2022-11-20T00:13:21;0.80;99.90
8563;DHT22;16392;52.508;13.468;2022-11-20T00:16:02;0.70;99.90
8563;DHT22;16392;52.508;13.468;2022-11-20T00:18:43;0.70;99.90
8563;DHT22;16392;52.508;13.468;2022-11-20T00:24:03;0.80;99.90
8563;DHT22;16392;52.508;13.468;2022-11-20T00:26:35;0.80;99.90
8563;DHT22;16392;52.508;13.468;2022-11-20T00:29:03;0.80;99.90
8563;DHT22;16392;52.508;13.468;2022-11-20T00:31:39;0.80;99.90
8563;DHT22;16392;52.508;13.468;2022-11-20T00:34:08;0.80;99.90
8563;DHT22;16392;52.508;13.468;2022-11-20T00:36:41;0.80;99.90
8563;DHT22;16392;52.508;13.468;2022-11-20T00:39:10;0.80;99.90
8563;DHT22;16392;52.508;13.468;2022-11-20T00:41:47;0.80;99.90
8563;DHT22;16392;52.508;13.468;2022-11-20T00:44:23;0.80;99.90
8563;DHT22;16392;52.508;13.468;2022-11-20T00:46:55;0.70;99.90
8563;DHT22;16392;52.508;13.468;2022-11-20T00:49:26;0.70;99.90
8563;DHT22;16392;52.508;13.468;2022-11-20T00:51:54;0.70;99.90
8563;DHT22;16392;52.508;13.468;2022-11-20T00:54:24;0.70;99.90
8563;DHT22;16392;52.508;13.468;2022-11-20T00:56:54;0.80;99.90
8563;DHT22;16392;52.508;13.468;2022-11-20T00:59:22;0.70;99.90
8563;DHT22;16392;52.508;13.468;2022-11-20T01:01:57;0.80;99.90
8563;DHT22;16392;52.508;13.468;2022-11-20T01:04:34;0.80;99.90
8563;DHT22;16392;52.508;13.468;2022-11-20T01:07:07;0.80;99.90
8563;DHT22;16392;52.508;13.468;2022-11-20T01:09:37;0.70;99.90
8563;DHT22;16392;52.508;13.468;2022-11-20T01:12:09;0.70;99.90
8563;DHT22;16392;52.508;13.468;2022-11-20T01:14:44;0.70;99.90
8563;DHT22;16392;52.508;13.468;2022-11-20T01:17:15;0.70;99.90
8563;DHT22;16392;52.508;13.468;2022-11-20T01:19:56;0.70;99.90
8563;DHT22;16392;52.508;13.468;2022-11-20T01:22:27;0.80;99.90
8563;DHT22;16392;52.508;13.468;2022-11-20T01:24:57;0.70;99.90
8563;DHT22;16392;52.508;13.468;2022-11-20T01:27:27;0.80;99.90
8563;DHT22;16392;52.508;13.468;2022-11-20T01:29:55;0.70;99.90
8563;DHT22;16392;52.508;13.468;2022-11-20T01:32:30;0.70;99.90
8563;DHT22;16392;52.508;13.468;2022-11-20T01:35:28;0.70;99.90
8563;DHT22;16392;52.508;13.468;2022-11-20T01:38:01;0.70;99.90
8563;DHT22;16392;52.508;13.468;2022-11-20T01:40:39;0.80;99.90
8563;DHT22;16392;52.508;13.468;2022-11-20T01:43:15;0.80;99.90
8563;DHT22;16392;52.508;13.468;2022-11-20T01:46:17;0.80;99.90
8563;DHT22;16392;52.508;13.468;2022-11-20T01:49:05;0.80;99.90
8563;DHT22;16392;52.508;13.468;2022-11-20T01:51:41;0.80;99.90
8563;DHT22;16392;52.508;13.468;2022-11-20T01:54:18;0.80;99.90
8563;DHT22;16392;52.508;13.468;2022-11-20T01:56:55;0.70;99.90
8563;DHT22;16392;52.508;13.468;2022-11-20T01:59:23;0.60;99.90
8563;DHT22;16392;52.508;13.468;2022-11-20T02:01:59;0.60;99.90
8563;DHT22;16392;52.508;13.468;2022-11-20T02:04:33;0.60;99.90
8563;DHT22;16392;52.508;13.468;2022-11-20T02:07:07;0.60;99.90
8563;DHT22;16392;52.508;13.468;2022-11-20T02:09:51;0.50;99.90
8563;DHT22;16392;52.508;13.468;2022-11-20T02:12:21;0.50;99.90
8563;DHT22;16392;52.508;13.468;2022-11-20T02:15:09;0.50;99.90
8563;DHT22;16392;52.508;13.468;2022-11-20T02:17:41;0.50;99.90
8563;DHT22;16392;52.508;13.468;2022-11-20T02:20:13;0.50;99.90
8563;DHT22;16392;52.508;13.468;2022-11-20T02:22:50;0.50;99.90
8563;DHT22;16392;52.508;13.468;2022-11-20T02:25:23;0.50;99.90
8563;DHT22;16392;52.508;13.468;2022-11-20T02:27:53;0.50;99.90
8563;DHT22;16392;52.508;13.468;2022-11-20T02:30:22;0.40;99.90
8563;DHT22;16392;52.508;13.468;2022-11-20T02:32:59;0.50;99.90
8563;DHT22;16392;52.508;13.468;2022-11-20T02:35:42;0.50;99.90
8563;DHT22;16392;52.508;13.468;2022-11-20T02:38:16;0.50;99.90
8563;DHT22;16392;52.508;13.468;2022-11-20T02:40:49;0.40;99.90
8563;DHT22;16392;52.508;13.468;2022-11-20T02:43:26;0.50;99.90
8563;DHT22;16392;52.508;13.468;2022-11-20T02:46:01;0.40;99.90
8563;DHT22;16392;52.508;13.468;2022-11-20T02:48:31;0.40;99.90
8563;DHT22;16392;52.508;13.468;2022-11-20T02:51:07;0.40;99.90
8563;DHT22;16392;52.508;13.468;2022-11-20T02:53:42;0.50;99.90
8563;DHT22;16392;52.508;13.468;2022-11-20T02:56:13;0.50;99.90
8563;DHT22;16392;52.508;13.468;2022-11-20T02:58:39;0.50;99.90
8563;DHT22;16392;52.508;13.468;2022-11-20T03:01:06;0.50;99.90
8563;DHT22;16392;52.508;13.468;2022-11-20T03:03:33;0.50;99.90
8563;DHT22;16392;52.508;13.468;2022-11-20T03:05:59;0.50;99.90
8563;DHT22;16392;52.508;13.468;2022-11-20T03:08:26;0.50;99.90
8563;DHT22;16392;52.508;13.468;2022-11-20T03:10:53;0.50;99.90
8563;DHT22;16392;52.508;13.468;2022-11-20T03:13:21;0.40;99.90
8563;DHT22;16392;52.508;13.468;2022-11-20T03:15:48;0.40;99.90
8563;DHT22;16392;52.508;13.468;2022-11-20T03:18:14;0.40;99.90
8563;DHT22;16392;52.508;13.468;2022-11-20T03:20:41;0.40;99.90
8563;DHT22;16392;52.508;13.468;2022-11-20T03:23:08;0.40;99.90
8563;DHT22;16392;52.508;13.468;2022-11-20T03:25:34;0.40;99.90
8563;DHT22;16392;52.508;13.468;2022-11-20T03:28:01;0.30;99.90
8563;DHT22;16392;52.508;13.468;2022-11-20T03:30:29;0.30;99.90
8563;DHT22;16392;52.508;13.468;2022-11-20T03:32:56;0.30;99.90
8563;DHT22;16392;52.508;13.468;2022-11-20T03:35:22;0.30;99.90
8563;DHT22;16392;52.508;13.468;2022-11-20T03:37:49;0.30;99.90
8563;DHT22;16392;52.508;13.468;2022-11-20T03:40:15;0.30;99.90
8563;DHT22;16392;52.508;13.468;2022-11-20T03:42:42;0.30;99.90
8563;DHT22;16392;52.508;13.468;2022-11-20T03:45:13;0.30;99.90
8563;DHT22;16392;52.508;13.468;2022-11-20T03:47:43;0.30;99.90
8563;DHT22;16392;52.508;13.468;2022-11-20T03:50:12;0.30;99.90
8563;DHT22;16392;52.508;13.468;2022-11-20T03:52:40;0.40;99.90
8563;DHT22;16392;52.508;13.468;2022-11-20T03:55:07;0.30;99.90
8563;DHT22;16392;52.508;13.468;2022-11-20T03:57:34;0.40;99.90
8563;DHT22;16392;52.508;13.468;2022-11-20T04:00:00;0.40;99.90
8563;DHT22;16392;52.508;13.468;2022-11-20T04:02:29;0.30;99.90
8563;DHT22;16392;52.508;13.468;2022-11-20T04:04:57;0.30;99.90
8563;DHT22;16392;52.508;13.468;2022-11-20T04:07:23;0.30;99.90
8563;DHT22;16392;52.508;13.468;2022-11-20T04:09:50;0.30;99.90
8563;DHT22;16392;52.508;13.468;2022-11-20T04:12:17;0.30;99.90
8563;DHT22;16392;52.508;13.468;2022-11-20T04:14:43;0.30;99.90
8563;DHT22;16392;52.508;13.468;2022-11-20T04:17:10;0.30;99.90
8563;DHT22;16392;52.508;13.468;2022-11-20T04:19:36;0.20;99.90
8563;DHT22;16392;52.508;13.468;2022-11-20T04:22:04;0.20;99.90
8563;DHT22;16392;52.508;13.468;2022-11-20T04:24:31;0.20;99.90
8563;DHT22;16392;52.508;13.468;2022-11-20T04:26:58;0.10;99.90
8563;DHT22;16392;52.508;13.468;2022-11-20T04:29:24;0.10;99.90
8563;DHT22;16392;52.508;13.468;2022-11-20T04:31:52;0.00;99.90
8563;DHT22;16392;52.508;13.468;2022-11-20T04:34:19;0.00;99.90
8563;DHT22;16392;52.508;13.468;2022-11-20T04:36:45;0.00;99.90
8563;DHT22;16392;52.508;13.468;2022-11-20T04:39:14;0.00;99.90
8563;DHT22;16392;52.508;13.468;2022-11-20T04:41:41;0.00;99.90
8563;DHT22;16392;52.508;13.468;2022-11-20T04:44:08;0.00;99.90
8563;DHT22;16392;52.508;13.468;2022-11-20T04:46:37;0.00;99.90
8563;DHT22;16392;52.508;13.468;2022-11-20T04:49:04;-0.10;99.90
8563;DHT22;16392;52.508;13.468;2022-11-20T04:51:33;-0.10;99.90
8563;DHT22;16392;52.508;13.468;2022-11-20T04:54:00;-0.10;99.90
8563;DHT22;16392;52.508;13.468;2022-11-20T04:56:28;-0.10;99.90
8563;DHT22;16392;52.508;13.468;2022-11-20T04:58:55;-0.10;99.90
8563;DHT22;16392;52.508;13.468;2022-11-20T05:01:26;-0.10;99.90
8563;DHT22;16392;52.508;13.468;2022-11-20T05:03:53;-0.10;99.90
8563;DHT22;16392;52.508;13.468;2022-11-20T05:06:21;-0.10;99.90
8563;DHT22;16392;52.508;13.468;2022-11-20T05:08:48;-0.10;99.90
8563;DHT22;16392;52.508;13.468;2022-11-20T05:11:16;0.00;99.90
8563;DHT22;16392;52.508;13.468;2022-11-20T05:13:44;-0.10;99.90
8563;DHT22;16392;52.508;13.468;2022-11-20T05:16:13;0.00;99.90
8563;DHT22;16392;52.508;13.468;2022-11-20T05:18:40;0.00;99.90
8563;DHT22;16392;52.508;13.468;2022-11-20T05:21:08;0.00;99.90
8563;DHT22;16392;52.508;13.468;2022-11-20T05:23:35;0.00;99.90
8563;DHT22;16392;52.508;13.468;2022-11-20T05:26:02;0.00;99.90
8563;DHT22;16392;52.508;13.468;2022-11-20T05:28:32;0.00;99.90
8563;DHT22;16392;52.508;13.468;2022-11-20T05:31:06;0.00;99.90
8563;DHT22;16392;52.508;13.468;2022-11-20T05:33:33;0.10;99.90
8563;DHT22;16392;52.508;13.468;2022-11-20T05:36:00;0.10;99.90
8563;DHT22;16392;52.508;13.468;2022-11-20T05:38:27;0.10;99.90
8563;DHT22;16392;52.508;13.468;2022-11-20T05:40:53;0.10;99.90
8563;DHT22;16392;52.508;13.468;2022-11-20T05:43:21;0.10;99.90
8563;DHT22;16392;52.508;13.468;2022-11-20T05:45:54;0.10;99.90
8563;DHT22;16392;52.508;13.468;2022-11-20T05:48:22;0.20;99.90
8563;DHT22;16392;52.508;13.468;2022-11-20T05:50:49;0.20;99.90
8563;DHT22;16392;52.508;13.468;2022-11-20T05:53:15;0.20;99.90
8563;DHT22;16392;52.508;13.468;2022-11-20T05:55:42;0.20;99.90
8563;DHT22;16392;52.508;13.468;2022-11-20T05:58:09;0.20;99.90
8563;DHT22;16392;52.508;13.468;2022-11-20T06:00:35;0.30;99.90
8563;DHT22;16392;52.508;13.468;2022-11-20T06:03:04;0.30;99.90
8563;DHT22;16392;52.508;13.468;2022-11-20T06:05:34;0.20;99.90
8563;DHT22;16392;52.508;13.468;2022-11-20T06:08:01;0.20;99.90
8563;DHT22;16392;52.508;13.468;2022-11-20T06:10:27;0.20;99.90
8563;DHT22;16392;52.508;13.468;2022-11-20T06:12:57;0.20;99.90
8563;DHT22;16392;52.508;13.468;2022-11-20T06:15:23;0.20;99.90
8563;DHT22;16392;52.508;13.468;2022-11-20T06:17:52;0.20;99.90
8563;DHT22;16392;52.508;13.468;2022-11-20T06:20:19;0.20;99.90
8563;DHT22;16392;52.508;13.468;2022-11-20T06:22:47;0.20;99.90
8563;DHT22;16392;52.508;13.468;2022-11-20T06:25:14;0.20;99.90
8563;DHT22;16392;52.508;13.468;2022-11-20T06:27:40;0.20;99.90
8563;DHT22;16392;52.508;13.468;2022-11-20T06:30:08;0.20;99.90
8563;DHT22;16392;52.508;13.468;2022-11-20T06:32:35;0.20;99.90
8563;DHT22;16392;52.508;13.468;2022-11-20T06:35:02;0.20;99.90
8563;DHT22;16392;52.508;13.468;2022-11-20T06:37:30;0.20;99.90
8563;DHT22;16392;52.508;13.468;2022-11-20T06:39:58;0.20;99.90
8563;DHT22;16392;52.508;13.468;2022-11-20T06:42:24;0.20;99.90
8563;DHT22;16392;52.508;13.468;2022-11-20T06:44:51;0.20;99.90
8563;DHT22;16392;52.508;13.468;2022-11-20T06:47:17;0.20;99.90
8563;DHT22;16392;52.508;13.468;2022-11-20T06:49:44;0.20;99.90
8563;DHT22;16392;52.508;13.468;2022-11-20T06:52:12;0.20;99.90
8563;DHT22;16392;52.508;13.468;2022-11-20T06:54:40;0.20;99.90
8563;DHT22;16392;52.508;13.468;2022-11-20T06:57:07;0.20;99.90
8563;DHT22;16392;52.508;13.468;2022-11-20T06:59:34;0.30;99.90
8563;DHT22;16392;52.508;13.468;2022-11-20T07:02:02;0.30;99.90
8563;DHT22;16392;52.508;13.468;2022-11-20T07:04:28;0.30;99.90
8563;DHT22;16392;52.508;13.468;2022-11-20T07:06:55;0.30;99.90
8563;DHT22;16392;52.508;13.468;2022-11-20T07:09:22;0.30;99.90
8563;DHT22;16392;52.508;13.468;2022-11-20T07:11:49;0.30;99.90
8563;DHT22;16392;52.508;13.468;2022-11-20T07:14:29;0.30;99.90
8563;DHT22;16392;52.508;13.468;2022-11-20T07:16:56;0.30;99.90
8563;DHT22;16392;52.508;13.468;2022-11-20T07:19:23;0.40;99.90
8563;DHT22;16392;52.508;13.468;2022-11-20T07:21:49;0.40;99.90
8563;DHT22;16392;52.508;13.468;2022-11-20T07:24:16;0.30;99.90
8563;DHT22;16392;52.508;13.468;2022-11-20T07:26:42;0.30;99.90
8563;DHT22;16392;52.508;13.468;2022-11-20T07:29:12;0.40;99.90
8563;DHT22;16392;52.508;13.468;2022-11-20T07:31:39;0.40;99.90
8563;DHT22;16392;52.508;13.468;2022-11-20T07:34:06;0.40;99.90
8563;DHT22;16392;52.508;13.468;2022-11-20T07:36:33;0.40;99.90
8563;DHT22;16392;52.508;13.468;2022-11-20T07:39:02;0.40;99.90
8563;DHT22;16392;52.508;13.468;2022-11-20T07:41:29;0.40;99.90
8563;DHT22;16392;52.508;13.468;2022-11-20T07:43:55;0.40;99.90
8563;DHT22;16392;52.508;13.468;2022-11-20T07:46:25;0.40;99.90
8563;DHT22;16392;52.508;13.468;2022-11-20T07:48:53;0.30;99.90
8563;DHT22;16392;52.508;13.468;2022-11-20T07:51:20;0.30;99.90
8563;DHT22;16392;52.508;13.468;2022-11-20T07:53:47;0.40;99.90
8563;DHT22;16392;52.508;13.468;2022-11-20T07:56:13;0.40;99.90
8563;DHT22;16392;52.508;13.468;2022-11-20T07:58:40;0.30;99.90
8563;DHT22;16392;52.508;13.468;2022-11-20T08:01:07;0.30;99.90
8563;DHT22;16392;52.508;13.468;2022-11-20T08:03:35;0.20;99.90
8563;DHT22;16392;52.508;13.468;2022-11-20T08:06:04;0.30;99.90
8563;DHT22;16392;52.508;13.468;2022-11-20T08:08:31;0.30;99.90
8563;DHT22;16392;52.508;13.468;2022-11-20T08:10:58;0.30;99.90
8563;DHT22;16392;52.508;13.468;2022-11-20T08:13:46;0.30;99.90
8563;DHT22;16392;52.508;13.468;2022-11-20T08:16:31;0.40;99.90
8563;DHT22;16392;52.508;13.468;2022-11-20T08:18:57;0.40;99.90
8563;DHT22;16392;52.508;13.468;2022-11-20T08:21:25;0.50;99.90
8563;DHT22;16392;52.508;13.468;2022-11-20T08:23:52;0.50;99.90
8563;DHT22;16392;52.508;13.468;2022-11-20T08:26:22;0.50;99.90
8563;DHT22;16392;52.508;13.468;2022-11-20T08:28:49;0.60;99.90
8563;DHT22;16392;52.508;13.468;2022-11-20T08:31:15;0.60;99.90
8563;DHT22;16392;52.508;13.468;2022-11-20T08:33:42;0.70;99.90
8563;DHT22;16392;52.508;13.468;2022-11-20T08:36:08;0.60;99.90
8563;DHT22;16392;52.508;13.468;2022-11-20T08:38:36;0.60;99.90
8563;DHT22;16392;52.508;13.468;2022-11-20T08:41:04;0.70;99.90
8563;DHT22;16392;52.508;13.468;2022-11-20T08:43:49;0.80;99.90
8563;DHT22;16392;52.508;13.468;2022-11-20T08:46:16;0.80;99.90
8563;DHT22;16392;52.508;13.468;2022-11-20T08:48:44;0.70;99.90
8563;DHT22;16392;52.508;13.468;2022-11-20T08:51:12;0.70;99.90
8563;DHT22;16392;52.508;13.468;2022-11-20T08:53:40;0.70;99.90
8563;DHT22;16392;52.508;13.468;2022-11-20T08:56:07;0.70;99.90
8563;DHT22;16392;52.508;13.468;2022-11-20T08:58:35;0.80;99.90
8563;DHT22;16392;52.508;13.468;2022-11-20T09:01:02;0.80;99.90
8563;DHT22;16392;52.508;13.468;2022-11-20T09:03:29;0.80;99.90
8563;DHT22;16392;52.508;13.468;2022-11-20T09:05:57;0.90;99.90
8563;DHT22;16392;52.508;13.468;2022-11-20T09:08:24;0.90;99.90
8563;DHT22;16392;52.508;13.468;2022-11-20T09:10:53;0.90;99.90
8563;DHT22;16392;52.508;13.468;2022-11-20T09:13:21;1.00;99.90
8563;DHT22;16392;52.508;13.468;2022-11-20T09:15:53;1.00;99.90
8563;DHT22;16392;52.508;13.468;2022-11-20T09:18:19;1.10;99.90
8563;DHT22;16392;52.508;13.468;2022-11-20T09:20:46;1.00;99.90
8563;DHT22;16392;52.508;13.468;2022-11-20T09:23:13;1.10;99.90
8563;DHT22;16392;52.508;13.468;2022-11-20T09:25:39;1.10;99.90
8563;DHT22;16392;52.508;13.468;2022-11-20T09:28:07;1.10;99.90
8563;DHT22;16392;52.508;13.468;2022-11-20T09:30:35;1.10;99.90
8563;DHT22;16392;52.508;13.468;2022-11-20T09:33:04;1.10;99.90
8563;DHT22;16392;52.508;13.468;2022-11-20T09:35:31;1.00;99.90
8563;DHT22;16392;52.508;13.468;2022-11-20T09:37:58;1.00;99.90
8563;DHT22;16392;52.508;13.468;2022-11-20T09:40:26;1.10;99.90
8563;DHT22;16392;52.508;13.468;2022-11-20T09:42:57;1.10;99.90
8563;DHT22;16392;52.508;13.468;2022-11-20T09:45:35;1.10;99.90
8563;DHT22;16392;52.508;13.468;2022-11-20T09:48:27;1.10;99.90
8563;DHT22;16392;52.508;13.468;2022-11-20T09:51:00;1.10;99.90
8563;DHT22;16392;52.508;13.468;2022-11-20T09:53:45;1.20;99.90
8563;DHT22;16392;52.508;13.468;2022-11-20T09:56:20;1.20;99.90
8563;DHT22;16392;52.508;13.468;2022-11-20T09:58:49;1.20;99.90
8563;DHT22;16392;52.508;13.468;2022-11-20T10:01:20;1.20;99.90
8563;DHT22;16392;52.508;13.468;2022-11-20T10:03:55;1.30;99.90
8563;DHT22;16392;52.508;13.468;2022-11-20T10:06:29;1.40;99.90
8563;DHT22;16392;52.508;13.468;2022-11-20T10:09:07;1.40;99.90
8563;DHT22;16392;52.508;13.468;2022-11-20T10:11:46;1.50;99.90
8563;DHT22;16392;52.508;13.468;2022-11-20T10:14:23;1.50;99.90
8563;DHT22;16392;52.508;13.468;2022-11-20T10:17:02;1.40;99.90
8563;DHT22;16392;52.508;13.468;2022-11-20T10:22:37;1.50;99.90
8563;DHT22;16392;52.508;13.468;2022-11-20T10:25:14;1.50;99.90
8563;DHT22;16392;52.508;13.468;2022-11-20T10:28:10;1.50;99.90
8563;DHT22;16392;52.508;13.468;2022-11-20T10:30:44;1.50;99.90
8563;DHT22;16392;52.508;13.468;2022-11-20T10:33:17;1.40;99.90
8563;DHT22;16392;52.508;13.468;2022-11-20T10:35:50;1.30;99.90
8563;DHT22;16392;52.508;13.468;2022-11-20T10:38:20;1.20;99.90
8563;DHT22;16392;52.508;13.468;2022-11-20T10:40:50;1.20;99.90
8563;DHT22;16392;52.508;13.468;2022-11-20T10:43:26;1.20;99.90
8563;DHT22;16392;52.508;13.468;2022-11-20T10:45:58;1.10;99.90
8563;DHT22;16392;52.508;13.468;2022-11-20T10:48:27;1.20;99.90
8563;DHT22;16392;52.508;13.468;2022-11-20T10:50:59;1.20;99.90
8563;DHT22;16392;52.508;13.468;2022-11-20T10:53:43;1.30;99.90
8563;DHT22;16392;52.508;13.468;2022-11-20T10:56:17;1.20;99.90
8563;DHT22;16392;52.508;13.468;2022-11-20T10:58:52;1.30;99.90
8563;DHT22;16392;52.508;13.468;2022-11-20T11:01:21;1.30;99.90
8563;DHT22;16392;52.508;13.468;2022-11-20T11:03:50;1.20;99.90
8563;DHT22;16392;52.508;13.468;2022-11-20T11:06:23;1.40;99.90
8563;DHT22;16392;52.508;13.468;2022-11-20T11:08:56;1.50;99.90
8563;DHT22;16392;52.508;13.468;2022-11-20T11:11:27;1.60;99.90
8563;DHT22;16392;52.508;13.468;2022-11-20T11:14:04;1.80;99.90
8563;DHT22;16392;52.508;13.468;2022-11-20T11:16:32;2.10;99.90
8563;DHT22;16392;52.508;13.468;2022-11-20T11:19:11;2.30;99.90
8563;DHT22;16392;52.508;13.468;2022-11-20T11:21:38;2.50;99.90
8563;DHT22;16392;52.508;13.468;2022-11-20T11:24:19;2.20;99.90
8563;DHT22;16392;52.508;13.468;2022-11-20T11:26:55;2.50;99.90
8563;DHT22;16392;52.508;13.468;2022-11-20T11:29:22;2.30;99.90
8563;DHT22;16392;52.508;13.468;2022-11-20T11:32:03;2.30;99.90
8563;DHT22;16392;52.508;13.468;2022-11-20T11:34:32;2.40;99.90
8563;DHT22;16392;52.508;13.468;2022-11-20T11:37:01;2.30;99.90
8563;DHT22;16392;52.508;13.468;2022-11-20T11:39:31;2.20;99.90
8563;DHT22;16392;52.508;13.468;2022-11-20T11:42:00;2.20;99.90
8563;DHT22;16392;52.508;13.468;2022-11-20T11:44:44;2.20;99.90
8563;DHT22;16392;52.508;13.468;2022-11-20T11:47:33;2.20;99.90
8563;DHT22;16392;52.508;13.468;2022-11-20T11:50:15;2.20;99.90
8563;DHT22;16392;52.508;13.468;2022-11-20T11:52:46;2.10;99.90
8563;DHT22;16392;52.508;13.468;2022-11-20T11:55:24;2.10;99.90
8563;DHT22;16392;52.508;13.468;2022-11-20T11:57:55;2.10;99.90
8563;DHT22;16392;52.508;13.468;2022-11-20T12:00:26;2.10;99.90
8563;DHT22;16392;52.508;13.468;2022-11-20T12:03:00;2.10;99.90
8563;DHT22;16392;52.508;13.468;2022-11-20T12:05:37;2.10;99.90
8563;DHT22;16392;52.508;13.468;2022-11-20T12:08:09;1.90;99.90
8563;DHT22;16392;52.508;13.468;2022-11-20T12:10:43;1.70;99.90
8563;DHT22;16392;52.508;13.468;2022-11-20T12:13:21;1.60;99.90
8563;DHT22;16392;52.508;13.468;2022-11-20T12:15:49;1.50;99.90
8563;DHT22;16392;52.508;13.468;2022-11-20T12:18:18;1.60;99.90
8563;DHT22;16392;52.508;13.468;2022-11-20T12:20:57;1.60;99.90
8563;DHT22;16392;52.508;13.468;2022-11-20T12:23:35;1.70;99.90
8563;DHT22;16392;52.508;13.468;2022-11-20T12:26:15;1.70;99.90
8563;DHT22;16392;52.508;13.468;2022-11-20T12:28:55;1.70;99.90
8563;DHT22;16392;52.508;13.468;2022-11-20T12:31:37;1.80;99.90
8563;DHT22;16392;52.508;13.468;2022-11-20T12:34:20;1.90;99.90
8563;DHT22;16392;52.508;13.468;2022-11-20T12:36:56;1.90;99.90
8563;DHT22;16392;52.508;13.468;2022-11-20T12:39:33;2.00;99.90
8563;DHT22;16392;52.508;13.468;2022-11-20T12:42:14;2.00;99.90
8563;DHT22;16392;52.508;13.468;2022-11-20T12:48:25;1.80;99.90
8563;DHT22;16392;52.508;13.468;2022-11-20T12:51:11;1.70;99.90
8563;DHT22;16392;52.508;13.468;2022-11-20T12:53:49;1.70;99.90
8563;DHT22;16392;52.508;13.468;2022-11-20T12:56:27;1.70;99.90
8563;DHT22;16392;52.508;13.468;2022-11-20T12:59:05;1.70;99.90
8563;DHT22;16392;52.508;13.468;2022-11-20T13:01:38;1.70;99.90
8563;DHT22;16392;52.508;13.468;2022-11-20T13:04:16;1.70;99.90
8563;DHT22;16392;52.508;13.468;2022-11-20T13:06:45;1.70;99.90
8563;DHT22;16392;52.508;13.468;2022-11-20T13:09:16;1.70;99.90
8563;DHT22;16392;52.508;13.468;2022-11-20T13:11:49;1.80;99.90
8563;DHT22;16392;52.508;13.468;2022-11-20T13:14:26;1.80;99.90
8563;DHT22;16392;52.508;13.468;2022-11-20T13:16:59;1.70;99.90
8563;DHT22;16392;52.508;13.468;2022-11-20T13:19:27;1.80;99.90
8563;DHT22;16392;52.508;13.468;2022-11-20T13:21:55;1.80;99.90
8563;DHT22;16392;52.508;13.468;2022-11-20T13:24:28;2.00;99.90
8563;DHT22;16392;52.508;13.468;2022-11-20T13:27:17;2.10;99.90
8563;DHT22;16392;52.508;13.468;2022-11-20T13:29:46;2.20;99.90
8563;DHT22;16392;52.508;13.468;2022-11-20T13:32:15;2.20;99.90
8563;DHT22;16392;52.508;13.468;2022-11-20T13:34:51;2.20;99.90
8563;DHT22;16392;52.508;13.468;2022-11-20T13:37:27;2.20;99.90
8563;DHT22;16392;52.508;13.468;2022-11-20T13:40:05;2.20;99.90
8563;DHT22;16392;52.508;13.468;2022-11-20T13:42:37;2.20;99.90
8563;DHT22;16392;52.508;13.468;2022-11-20T13:45:10;2.20;99.90
8563;DHT22;16392;52.508;13.468;2022-11-20T13:47:38;2.10;99.90
8563;DHT22;16392;52.508;13.468;2022-11-20T13:50:14;2.10;99.90
8563;DHT22;16392;52.508;13.468;2022-11-20T13:52:49;2.10;99.90
8563;DHT22;16392;52.508;13.468;2022-11-20T13:55:24;2.20;99.90
8563;DHT22;16392;52.508;13.468;2022-11-20T13:58:12;2.20;99.90
8563;DHT22;16392;52.508;13.468;2022-11-20T14:00:50;2.20;99.90
8563;DHT22;16392;52.508;13.468;2022-11-20T14:03:20;2.20;99.90
8563;DHT22;16392;52.508;13.468;2022-11-20T14:05:51;2.20;99.90
8563;DHT22;16392;52.508;13.468;2022-11-20T14:08:27;2.10;99.90
8563;DHT22;16392;52.508;13.468;2022-11-20T14:11:14;2.10;99.90
8563;DHT22;16392;52.508;13.468;2022-11-20T14:13:53;2.00;99.90
8563;DHT22;16392;52.508;13.468;2022-11-20T14:16:20;2.00;99.90
8563;DHT22;16392;52.508;13.468;2022-11-20T14:18:46;1.90;99.90
8563;DHT22;16392;52.508;13.468;2022-11-20T14:21:21;1.90;99.90
8563;DHT22;16392;52.508;13.468;2022-11-20T14:23:48;1.90;99.90
8563;DHT22;16392;52.508;13.468;2022-11-20T14:26:18;1.90;99.90
8563;DHT22;16392;52.508;13.468;2022-11-20T14:28:48;1.90;99.90
8563;DHT22;16392;52.508;13.468;2022-11-20T14:31:21;1.90;99.90
8563;DHT22;16392;52.508;13.468;2022-11-20T14:33:49;1.90;99.90
8563;DHT22;16392;52.508;13.468;2022-11-20T14:36:17;1.90;99.90
8563;DHT22;16392;52.508;13.468;2022-11-20T14:38:45;1.90;99.90
8563;DHT22;16392;52.508;13.468;2022-11-20T14:41:18;1.90;99.90
8563;DHT22;16392;52.508;13.468;2022-11-20T14:43:46;1.80;99.90
8563;DHT22;16392;52.508;13.468;2022-11-20T14:46:14;1.80;99.90
8563;DHT22;16392;52.508;13.468;2022-11-20T14:48:44;1.70;99.90
8563;DHT22;16392;52.508;13.468;2022-11-20T14:51:15;1.60;99.90
8563;DHT22;16392;52.508;13.468;2022-11-20T14:53:49;1.70;99.90
8563;DHT22;16392;52.508;13.468;2022-11-20T14:56:22;1.60;99.90
8563;DHT22;16392;52.508;13.468;2022-11-20T14:58:56;1.60;99.90
8563;DHT22;16392;52.508;13.468;2022-11-20T15:01:26;1.60;99.90
8563;DHT22;16392;52.508;13.468;2022-11-20T15:04:00;1.60;99.90
8563;DHT22;16392;52.508;13.468;2022-11-20T15:06:27;1.50;99.90
8563;DHT22;16392;52.508;13.468;2022-11-20T15:08:55;1.40;99.90
8563;DHT22;16392;52.508;13.468;2022-11-20T15:11:28;1.40;99.90
8563;DHT22;16392;52.508;13.468;2022-11-20T15:13:55;1.40;99.90
8563;DHT22;16392;52.508;13.468;2022-11-20T15:16:23;1.40;99.90
8563;DHT22;16392;52.508;13.468;2022-11-20T15:18:51;1.50;99.90
8563;DHT22;16392;52.508;13.468;2022-11-20T15:21:19;1.40;99.90
8563;DHT22;16392;52.508;13.468;2022-11-20T15:23:46;1.40;99.90
8563;DHT22;16392;52.508;13.468;2022-11-20T15:26:15;1.50;99.90
8563;DHT22;16392;52.508;13.468;2022-11-20T15:28:46;1.50;99.90
8563;DHT22;16392;52.508;13.468;2022-11-20T15:31:18;1.50;99.90
8563;DHT22;16392;52.508;13.468;2022-11-20T15:33:45;1.50;99.90
8563;DHT22;16392;52.508;13.468;2022-11-20T15:36:11;1.50;99.90
8563;DHT22;16392;52.508;13.468;2022-11-20T15:38:38;1.50;99.90
8563;DHT22;16392;52.508;13.468;2022-11-20T15:41:05;1.50;99.90
8563;DHT22;16392;52.508;13.468;2022-11-20T15:43:32;1.50;99.90
8563;DHT22;16392;52.508;13.468;2022-11-20T15:46:03;1.50;99.90
8563;DHT22;16392;52.508;13.468;2022-11-20T15:48:34;1.60;99.90
8563;DHT22;16392;52.508;13.468;2022-11-20T15:51:06;1.50;99.90
8563;DHT22;16392;52.508;13.468;2022-11-20T15:53:33;1.60;99.90
8563;DHT22;16392;52.508;13.468;2022-11-20T15:55:59;1.60;99.90
8563;DHT22;16392;52.508;13.468;2022-11-20T15:58:26;1.60;99.90
8563;DHT22;16392;52.508;13.468;2022-11-20T16:00:53;1.50;99.90
8563;DHT22;16392;52.508;13.468;2022-11-20T16:03:21;1.50;99.90
8563;DHT22;16392;52.508;13.468;2022-11-20T16:05:48;1.50;99.90
8563;DHT22;16392;52.508;13.468;2022-11-20T16:08:14;1.50;99.90
8563;DHT22;16392;52.508;13.468;2022-11-20T16:10:41;1.40;99.90
8563;DHT22;16392;52.508;13.468;2022-11-20T16:13:12;1.30;99.90
8563;DHT22;16392;52.508;13.468;2022-11-20T16:15:59;1.20;99.90
8563;DHT22;16392;52.508;13.468;2022-11-20T16:18:28;1.10;99.90